sensor_id;sensor_type;location;lat;lon;timestamp;P1;durP1;ratioP1;P2;durP2;ratioP2
16228;SDS011;8222;51.462;12.630;2022-11-20T00:02:08;17.70;;;14.80;;
16228;SDS011;8222;51.462;12.630;2022-11-20T00:04:33;18.80;;;15.23;;
16228;SDS011;8222;51.462;12.630;2022-11-20T00:06:59;19.95;;;15.50;;
16228;SDS011;8222;51.462;12.630;2022-11-20T00:09:24;20.30;;;16.07;;
16228;SDS011;8222;51.462;12.630;2022-11-20T00:11:50;20.43;;;14.50;;
16228;SDS011;8222;51.462;12.630;2022-11-20T00:14:15;20.63;;;16.00;;
16228;SDS011;8222;51.462;12.630;2022-11-20T00:16:41;20.42;;;16.23;;
16228;SDS011;8222;51.462;12.630;2022-11-20T00:19:07;20.60;;;15.27;;
16228;SDS011;8222;51.462;12.630;2022-11-20T00:21:32;20.97;;;15.50;;
16228;SDS011;8222;51.462;12.630;2022-11-20T00:24:00;18.08;;;15.30;;
16228;SDS011;8222;51.462;12.630;2022-11-20T00:26:26;19.30;;;15.43;;
16228;SDS011;8222;51.462;12.630;2022-11-20T00:28:53;19.80;;;15.95;;
16228;SDS011;8222;51.462;12.630;2022-11-20T00:31:21;19.90;;;16.73;;
16228;SDS011;8222;51.462;12.630;2022-11-20T00:33:47;17.95;;;14.52;;
16228;SDS011;8222;51.462;12.630;2022-11-20T00:36:18;19.00;;;15.38;;
16228;SDS011;8222;51.462;12.630;2022-11-20T00:38:46;17.50;;;14.20;;
16228;SDS011;8222;51.462;12.630;2022-11-20T00:41:13;18.93;;;15.60;;
16228;SDS011;8222;51.462;12.630;2022-11-20T00:43:41;17.17;;;12.85;;
16228;SDS011;8222;51.462;12.630;2022-11-20T00:46:12;19.67;;;13.43;;
16228;SDS011;8222;51.462;12.630;2022-11-20T00:48:39;21.02;;;15.57;;
16228;SDS011;8222;51.462;12.630;2022-11-20T00:51:05;21.60;;;16.97;;
16228;SDS011;8222;51.462;12.630;2022-11-20T00:53:31;21.75;;;16.85;;
16228;SDS011;8222;51.462;12.630;2022-11-20T00:56:01;19.23;;;15.05;;
16228;SDS011;8222;51.462;12.630;2022-11-20T00:58:29;19.97;;;15.43;;
16228;SDS011;8222;51.462;12.630;2022-11-20T01:01:06;20.85;;;15.55;;
16228;SDS011;8222;51.462;12.630;2022-11-20T01:03:41;20.02;;;15.48;;
16228;SDS011;8222;51.462;12.630;2022-11-20T01:08:39;20.50;;;15.82;;
16228;SDS011;8222;51.462;12.630;2022-11-20T01:11:08;18.98;;;15.77;;
16228;SDS011;8222;51.462;12.630;2022-11-20T01:13:36;20.30;;;15.40;;
16228;SDS011;8222;51.462;12.630;2022-11-20T01:16:03;19.70;;;14.10;;
16228;SDS011;8222;51.462;12.630;2022-11-20T01:18:34;18.90;;;14.75;;
16228;SDS011;8222;51.462;12.630;2022-11-20T01:21:10;20.27;;;14.95;;
16228;SDS011;8222;51.462;12.630;2022-11-20T01:23:38;19.83;;;15.90;;
16228;SDS011;8222;51.462;12.630;2022-11-20T01:26:09;17.98;;;15.48;;
16228;SDS011;8222;51.462;12.630;2022-11-20T01:28:38;19.30;;;14.95;;
16228;SDS011;8222;51.462;12.630;2022-11-20T01:31:41;22.58;;;15.32;;
16228;SDS011;8222;51.462;12.630;2022-11-20T01:34:02;20.88;;;16.48;;
16228;SDS011;8222;51.462;12.630;2022-11-20T01:36:30;18.38;;;16.33;;
16228;SDS011;8222;51.462;12.630;2022-11-20T01:38:58;21.03;;;15.43;;
16228;SDS011;8222;51.462;12.630;2022-11-20T01:41:27;20.35;;;15.50;;
16228;SDS011;8222;51.462;12.630;2022-11-20T01:44:14;19.60;;;15.02;;
16228;SDS011;8222;51.462;12.630;2022-11-20T01:49:40;21.33;;;16.02;;
16228;SDS011;8222;51.462;12.630;2022-11-20T01:54:47;19.55;;;15.38;;
16228;SDS011;8222;51.462;12.630;2022-11-20T01:57:17;18.83;;;15.35;;
16228;SDS011;8222;51.462;12.630;2022-11-20T01:59:48;18.92;;;15.10;;
16228;SDS011;8222;51.462;12.630;2022-11-20T02:02:19;19.45;;;14.30;;
16228;SDS011;8222;51.462;12.630;2022-11-20T02:04:46;20.83;;;15.43;;
16228;SDS011;8222;51.462;12.630;2022-11-20T02:07:12;19.55;;;15.27;;
16228;SDS011;8222;51.462;12.630;2022-11-20T02:09:39;17.40;;;13.23;;
16228;SDS011;8222;51.462;12.630;2022-11-20T02:12:04;17.83;;;14.83;;
16228;SDS011;8222;51.462;12.630;2022-11-20T02:14:50;20.73;;;16.50;;
16228;SDS011;8222;51.462;12.630;2022-11-20T02:17:16;21.63;;;14.82;;
16228;SDS011;8222;51.462;12.630;2022-11-20T02:19:44;18.98;;;13.95;;
16228;SDS011;8222;51.462;12.630;2022-11-20T02:22:19;19.13;;;15.10;;
16228;SDS011;8222;51.462;12.630;2022-11-20T02:24:55;19.70;;;14.93;;
16228;SDS011;8222;51.462;12.630;2022-11-20T02:27:23;22.05;;;15.85;;
16228;SDS011;8222;51.462;12.630;2022-11-20T02:29:52;19.33;;;14.53;;
16228;SDS011;8222;51.462;12.630;2022-11-20T02:34:52;19.85;;;15.85;;
16228;SDS011;8222;51.462;12.630;2022-11-20T02:37:18;19.30;;;15.38;;
16228;SDS011;8222;51.462;12.630;2022-11-20T02:39:49;22.00;;;15.03;;
16228;SDS011;8222;51.462;12.630;2022-11-20T02:42:16;19.77;;;15.23;;
16228;SDS011;8222;51.462;12.630;2022-11-20T02:44:42;16.80;;;13.93;;
16228;SDS011;8222;51.462;12.630;2022-11-20T02:47:08;18.63;;;15.02;;
16228;SDS011;8222;51.462;12.630;2022-11-20T02:49:34;19.23;;;15.63;;
16228;SDS011;8222;51.462;12.630;2022-11-20T02:52:00;19.73;;;14.85;;
16228;SDS011;8222;51.462;12.630;2022-11-20T02:54:28;20.17;;;15.95;;
16228;SDS011;8222;51.462;12.630;2022-11-20T02:56:53;20.27;;;16.05;;
16228;SDS011;8222;51.462;12.630;2022-11-20T02:59:19;20.73;;;15.70;;
16228;SDS011;8222;51.462;12.630;2022-11-20T03:01:44;19.55;;;13.77;;
16228;SDS011;8222;51.462;12.630;2022-11-20T03:04:10;22.70;;;16.25;;
16228;SDS011;8222;51.462;12.630;2022-11-20T03:06:36;20.67;;;15.63;;
16228;SDS011;8222;51.462;12.630;2022-11-20T03:09:01;17.80;;;15.60;;
16228;SDS011;8222;51.462;12.630;2022-11-20T03:11:28;20.33;;;15.93;;
16228;SDS011;8222;51.462;12.630;2022-11-20T03:13:55;21.53;;;16.00;;
16228;SDS011;8222;51.462;12.630;2022-11-20T03:16:22;20.47;;;16.90;;
16228;SDS011;8222;51.462;12.630;2022-11-20T03:18:48;21.17;;;15.68;;
16228;SDS011;8222;51.462;12.630;2022-11-20T03:21:16;23.67;;;16.58;;
16228;SDS011;8222;51.462;12.630;2022-11-20T03:23:42;21.00;;;15.45;;
16228;SDS011;8222;51.462;12.630;2022-11-20T03:28:34;19.83;;;15.45;;
16228;SDS011;8222;51.462;12.630;2022-11-20T03:31:11;20.45;;;16.33;;
16228;SDS011;8222;51.462;12.630;2022-11-20T03:33:38;21.90;;;16.95;;
16228;SDS011;8222;51.462;12.630;2022-11-20T03:36:06;20.37;;;14.80;;
16228;SDS011;8222;51.462;12.630;2022-11-20T03:38:34;22.65;;;16.63;;
16228;SDS011;8222;51.462;12.630;2022-11-20T03:41:04;24.77;;;18.17;;
16228;SDS011;8222;51.462;12.630;2022-11-20T03:43:34;22.83;;;16.73;;
16228;SDS011;8222;51.462;12.630;2022-11-20T03:46:00;21.88;;;16.70;;
16228;SDS011;8222;51.462;12.630;2022-11-20T03:48:26;23.00;;;16.85;;
16228;SDS011;8222;51.462;12.630;2022-11-20T03:51:06;21.75;;;16.92;;
16228;SDS011;8222;51.462;12.630;2022-11-20T03:53:40;21.70;;;17.45;;
16228;SDS011;8222;51.462;12.630;2022-11-20T03:56:08;22.58;;;16.17;;
16228;SDS011;8222;51.462;12.630;2022-11-20T03:58:35;20.98;;;16.40;;
16228;SDS011;8222;51.462;12.630;2022-11-20T04:01:05;22.35;;;16.58;;
16228;SDS011;8222;51.462;12.630;2022-11-20T04:03:32;23.70;;;18.48;;
16228;SDS011;8222;51.462;12.630;2022-11-20T04:06:19;23.08;;;17.65;;
16228;SDS011;8222;51.462;12.630;2022-11-20T04:08:47;23.13;;;17.48;;
16228;SDS011;8222;51.462;12.630;2022-11-20T04:11:19;23.42;;;18.17;;
16228;SDS011;8222;51.462;12.630;2022-11-20T04:13:47;23.08;;;17.45;;
16228;SDS011;8222;51.462;12.630;2022-11-20T04:16:15;23.63;;;18.48;;
16228;SDS011;8222;51.462;12.630;2022-11-20T04:18:43;24.55;;;18.42;;
16228;SDS011;8222;51.462;12.630;2022-11-20T04:21:09;24.40;;;17.77;;
16228;SDS011;8222;51.462;12.630;2022-11-20T04:23:36;19.85;;;14.52;;
16228;SDS011;8222;51.462;12.630;2022-11-20T04:26:03;23.13;;;18.00;;
16228;SDS011;8222;51.462;12.630;2022-11-20T04:28:33;26.17;;;19.63;;
16228;SDS011;8222;51.462;12.630;2022-11-20T04:31:05;23.00;;;16.77;;
16228;SDS011;8222;51.462;12.630;2022-11-20T04:33:36;28.70;;;19.67;;
16228;SDS011;8222;51.462;12.630;2022-11-20T04:36:06;25.30;;;17.65;;
16228;SDS011;8222;51.462;12.630;2022-11-20T04:38:36;25.67;;;18.73;;
16228;SDS011;8222;51.462;12.630;2022-11-20T04:41:03;24.43;;;17.70;;
16228;SDS011;8222;51.462;12.630;2022-11-20T04:43:30;22.45;;;17.55;;
16228;SDS011;8222;51.462;12.630;2022-11-20T04:45:57;25.02;;;18.00;;
16228;SDS011;8222;51.462;12.630;2022-11-20T04:48:23;23.50;;;18.05;;
16228;SDS011;8222;51.462;12.630;2022-11-20T04:50:50;23.95;;;17.88;;
16228;SDS011;8222;51.462;12.630;2022-11-20T04:53:16;26.35;;;18.27;;
16228;SDS011;8222;51.462;12.630;2022-11-20T04:55:44;23.43;;;17.80;;
16228;SDS011;8222;51.462;12.630;2022-11-20T04:58:10;24.67;;;18.25;;
16228;SDS011;8222;51.462;12.630;2022-11-20T05:00:36;24.20;;;18.27;;
16228;SDS011;8222;51.462;12.630;2022-11-20T05:03:04;23.88;;;17.98;;
16228;SDS011;8222;51.462;12.630;2022-11-20T05:05:30;27.57;;;20.10;;
16228;SDS011;8222;51.462;12.630;2022-11-20T05:07:56;25.13;;;17.75;;
16228;SDS011;8222;51.462;12.630;2022-11-20T05:10:23;25.80;;;18.17;;
16228;SDS011;8222;51.462;12.630;2022-11-20T05:12:52;30.83;;;18.95;;
16228;SDS011;8222;51.462;12.630;2022-11-20T05:15:18;26.45;;;19.25;;
16228;SDS011;8222;51.462;12.630;2022-11-20T05:17:48;23.67;;;18.02;;
16228;SDS011;8222;51.462;12.630;2022-11-20T05:20:15;24.88;;;17.50;;
16228;SDS011;8222;51.462;12.630;2022-11-20T05:22:41;24.05;;;18.48;;
16228;SDS011;8222;51.462;12.630;2022-11-20T05:25:07;25.40;;;18.67;;
16228;SDS011;8222;51.462;12.630;2022-11-20T05:27:32;28.83;;;19.50;;
16228;SDS011;8222;51.462;12.630;2022-11-20T05:30:00;25.73;;;18.93;;
16228;SDS011;8222;51.462;12.630;2022-11-20T05:32:26;25.23;;;17.75;;
16228;SDS011;8222;51.462;12.630;2022-11-20T05:34:52;25.20;;;18.55;;
16228;SDS011;8222;51.462;12.630;2022-11-20T05:37:18;26.30;;;18.77;;
16228;SDS011;8222;51.462;12.630;2022-11-20T05:39:45;23.88;;;18.45;;
16228;SDS011;8222;51.462;12.630;2022-11-20T05:42:11;26.15;;;19.10;;
16228;SDS011;8222;51.462;12.630;2022-11-20T05:44:55;24.20;;;18.45;;
16228;SDS011;8222;51.462;12.630;2022-11-20T05:47:26;26.08;;;19.70;;
16228;SDS011;8222;51.462;12.630;2022-11-20T05:49:53;24.25;;;18.08;;
16228;SDS011;8222;51.462;12.630;2022-11-20T05:52:19;26.15;;;18.40;;
16228;SDS011;8222;51.462;12.630;2022-11-20T05:54:45;26.03;;;18.53;;
16228;SDS011;8222;51.462;12.630;2022-11-20T05:57:12;26.30;;;18.73;;
16228;SDS011;8222;51.462;12.630;2022-11-20T05:59:38;26.63;;;18.47;;
16228;SDS011;8222;51.462;12.630;2022-11-20T06:02:04;25.37;;;18.37;;
16228;SDS011;8222;51.462;12.630;2022-11-20T06:04:29;27.42;;;20.67;;
16228;SDS011;8222;51.462;12.630;2022-11-20T06:06:55;28.90;;;19.73;;
16228;SDS011;8222;51.462;12.630;2022-11-20T06:09:23;26.55;;;18.85;;
16228;SDS011;8222;51.462;12.630;2022-11-20T06:11:48;24.33;;;18.90;;
16228;SDS011;8222;51.462;12.630;2022-11-20T06:14:14;26.00;;;18.43;;
16228;SDS011;8222;51.462;12.630;2022-11-20T06:16:41;23.52;;;17.20;;
16228;SDS011;8222;51.462;12.630;2022-11-20T06:19:07;22.53;;;17.07;;
16228;SDS011;8222;51.462;12.630;2022-11-20T06:21:32;24.93;;;18.57;;
16228;SDS011;8222;51.462;12.630;2022-11-20T06:23:58;24.33;;;18.53;;
16228;SDS011;8222;51.462;12.630;2022-11-20T06:26:25;20.77;;;16.53;;
16228;SDS011;8222;51.462;12.630;2022-11-20T06:28:52;22.85;;;18.05;;
16228;SDS011;8222;51.462;12.630;2022-11-20T06:31:19;25.85;;;18.45;;
16228;SDS011;8222;51.462;12.630;2022-11-20T06:33:47;25.02;;;18.00;;
16228;SDS011;8222;51.462;12.630;2022-11-20T06:36:14;24.17;;;16.95;;
16228;SDS011;8222;51.462;12.630;2022-11-20T06:38:41;24.08;;;17.02;;
16228;SDS011;8222;51.462;12.630;2022-11-20T06:41:08;26.00;;;17.50;;
16228;SDS011;8222;51.462;12.630;2022-11-20T06:43:37;25.27;;;19.42;;
16228;SDS011;8222;51.462;12.630;2022-11-20T06:46:03;24.27;;;17.95;;
16228;SDS011;8222;51.462;12.630;2022-11-20T06:48:29;24.17;;;17.70;;
16228;SDS011;8222;51.462;12.630;2022-11-20T06:50:55;24.13;;;17.83;;
16228;SDS011;8222;51.462;12.630;2022-11-20T06:53:21;24.90;;;18.73;;
16228;SDS011;8222;51.462;12.630;2022-11-20T06:55:47;26.40;;;19.45;;
16228;SDS011;8222;51.462;12.630;2022-11-20T06:58:13;27.40;;;23.17;;
16228;SDS011;8222;51.462;12.630;2022-11-20T07:00:41;26.52;;;20.65;;
16228;SDS011;8222;51.462;12.630;2022-11-20T07:03:08;26.23;;;21.50;;
16228;SDS011;8222;51.462;12.630;2022-11-20T07:05:36;26.73;;;21.35;;
16228;SDS011;8222;51.462;12.630;2022-11-20T07:08:02;27.65;;;20.98;;
16228;SDS011;8222;51.462;12.630;2022-11-20T07:10:28;23.48;;;18.55;;
16228;SDS011;8222;51.462;12.630;2022-11-20T07:12:54;23.70;;;18.47;;
16228;SDS011;8222;51.462;12.630;2022-11-20T07:15:20;27.30;;;21.13;;
16228;SDS011;8222;51.462;12.630;2022-11-20T07:17:48;24.48;;;18.45;;
16228;SDS011;8222;51.462;12.630;2022-11-20T07:20:14;23.48;;;18.83;;
16228;SDS011;8222;51.462;12.630;2022-11-20T07:22:40;24.00;;;18.13;;
16228;SDS011;8222;51.462;12.630;2022-11-20T07:25:06;24.60;;;18.00;;
16228;SDS011;8222;51.462;12.630;2022-11-20T07:27:32;24.58;;;17.27;;
16228;SDS011;8222;51.462;12.630;2022-11-20T07:29:58;23.85;;;18.30;;
16228;SDS011;8222;51.462;12.630;2022-11-20T07:32:24;23.93;;;17.93;;
16228;SDS011;8222;51.462;12.630;2022-11-20T07:34:49;24.37;;;17.53;;
16228;SDS011;8222;51.462;12.630;2022-11-20T07:37:15;21.25;;;16.35;;
16228;SDS011;8222;51.462;12.630;2022-11-20T07:39:41;19.67;;;14.60;;
16228;SDS011;8222;51.462;12.630;2022-11-20T07:42:07;25.23;;;17.17;;
16228;SDS011;8222;51.462;12.630;2022-11-20T07:44:33;24.27;;;16.85;;
16228;SDS011;8222;51.462;12.630;2022-11-20T07:46:59;22.92;;;17.55;;
16228;SDS011;8222;51.462;12.630;2022-11-20T07:49:25;21.97;;;16.53;;
16228;SDS011;8222;51.462;12.630;2022-11-20T07:51:51;24.70;;;17.53;;
16228;SDS011;8222;51.462;12.630;2022-11-20T07:54:18;25.38;;;17.15;;
16228;SDS011;8222;51.462;12.630;2022-11-20T07:56:45;23.03;;;17.47;;
16228;SDS011;8222;51.462;12.630;2022-11-20T07:59:11;21.77;;;16.57;;
16228;SDS011;8222;51.462;12.630;2022-11-20T08:01:37;22.87;;;16.57;;
16228;SDS011;8222;51.462;12.630;2022-11-20T08:04:04;24.17;;;17.70;;
16228;SDS011;8222;51.462;12.630;2022-11-20T08:06:32;21.45;;;16.20;;
16228;SDS011;8222;51.462;12.630;2022-11-20T08:08:58;20.55;;;16.67;;
16228;SDS011;8222;51.462;12.630;2022-11-20T08:11:23;23.70;;;17.42;;
16228;SDS011;8222;51.462;12.630;2022-11-20T08:14:08;22.20;;;15.82;;
16228;SDS011;8222;51.462;12.630;2022-11-20T08:19:10;21.55;;;16.77;;
16228;SDS011;8222;51.462;12.630;2022-11-20T08:21:36;21.70;;;16.70;;
16228;SDS011;8222;51.462;12.630;2022-11-20T08:24:02;22.37;;;16.07;;
16228;SDS011;8222;51.462;12.630;2022-11-20T08:26:30;24.38;;;18.02;;
16228;SDS011;8222;51.462;12.630;2022-11-20T08:28:56;22.08;;;16.77;;
16228;SDS011;8222;51.462;12.630;2022-11-20T08:31:23;24.63;;;18.55;;
16228;SDS011;8222;51.462;12.630;2022-11-20T08:33:49;25.00;;;18.07;;
16228;SDS011;8222;51.462;12.630;2022-11-20T08:36:17;23.67;;;17.58;;
16228;SDS011;8222;51.462;12.630;2022-11-20T08:38:50;23.00;;;18.40;;
16228;SDS011;8222;51.462;12.630;2022-11-20T08:41:17;21.60;;;17.45;;
16228;SDS011;8222;51.462;12.630;2022-11-20T08:44:01;21.48;;;16.33;;
16228;SDS011;8222;51.462;12.630;2022-11-20T08:46:33;25.05;;;17.83;;
16228;SDS011;8222;51.462;12.630;2022-11-20T08:49:05;22.52;;;17.73;;
16228;SDS011;8222;51.462;12.630;2022-11-20T08:51:33;23.13;;;18.48;;
16228;SDS011;8222;51.462;12.630;2022-11-20T08:53:59;21.52;;;16.10;;
16228;SDS011;8222;51.462;12.630;2022-11-20T08:56:26;22.75;;;17.88;;
16228;SDS011;8222;51.462;12.630;2022-11-20T08:58:52;23.30;;;17.70;;
16228;SDS011;8222;51.462;12.630;2022-11-20T09:01:19;23.42;;;18.20;;
16228;SDS011;8222;51.462;12.630;2022-11-20T09:03:45;22.90;;;17.40;;
16228;SDS011;8222;51.462;12.630;2022-11-20T09:06:11;25.55;;;18.30;;
16228;SDS011;8222;51.462;12.630;2022-11-20T09:08:36;24.65;;;17.67;;
16228;SDS011;8222;51.462;12.630;2022-11-20T09:11:02;24.73;;;18.38;;
16228;SDS011;8222;51.462;12.630;2022-11-20T09:13:29;23.30;;;18.25;;
16228;SDS011;8222;51.462;12.630;2022-11-20T09:15:55;24.48;;;17.20;;
16228;SDS011;8222;51.462;12.630;2022-11-20T09:18:22;25.20;;;19.42;;
16228;SDS011;8222;51.462;12.630;2022-11-20T09:20:49;27.27;;;19.33;;
16228;SDS011;8222;51.462;12.630;2022-11-20T09:23:14;24.60;;;19.13;;
16228;SDS011;8222;51.462;12.630;2022-11-20T09:25:40;23.23;;;18.73;;
16228;SDS011;8222;51.462;12.630;2022-11-20T09:28:06;24.03;;;19.40;;
16228;SDS011;8222;51.462;12.630;2022-11-20T09:30:32;24.97;;;19.00;;
16228;SDS011;8222;51.462;12.630;2022-11-20T09:32:58;27.58;;;20.20;;
16228;SDS011;8222;51.462;12.630;2022-11-20T09:35:23;27.13;;;20.70;;
16228;SDS011;8222;51.462;12.630;2022-11-20T09:37:49;23.85;;;19.58;;
16228;SDS011;8222;51.462;12.630;2022-11-20T09:40:18;23.13;;;18.38;;
16228;SDS011;8222;51.462;12.630;2022-11-20T09:42:56;25.48;;;19.52;;
16228;SDS011;8222;51.462;12.630;2022-11-20T09:48:32;24.25;;;18.98;;
16228;SDS011;8222;51.462;12.630;2022-11-20T09:51:28;22.77;;;18.63;;
16228;SDS011;8222;51.462;12.630;2022-11-20T09:54:13;24.13;;;16.70;;
16228;SDS011;8222;51.462;12.630;2022-11-20T09:56:49;21.92;;;17.02;;
16228;SDS011;8222;51.462;12.630;2022-11-20T09:59:26;22.35;;;18.10;;
16228;SDS011;8222;51.462;12.630;2022-11-20T10:02:01;23.67;;;18.40;;
16228;SDS011;8222;51.462;12.630;2022-11-20T10:04:31;24.13;;;17.55;;
16228;SDS011;8222;51.462;12.630;2022-11-20T10:07:07;20.40;;;16.95;;
16228;SDS011;8222;51.462;12.630;2022-11-20T10:09:41;24.05;;;18.25;;
16228;SDS011;8222;51.462;12.630;2022-11-20T10:20:43;19.42;;;16.33;;
16228;SDS011;8222;51.462;12.630;2022-11-20T10:31:39;21.02;;;16.35;;
16228;SDS011;8222;51.462;12.630;2022-11-20T10:34:15;21.10;;;17.23;;
16228;SDS011;8222;51.462;12.630;2022-11-20T10:36:49;21.80;;;17.10;;
16228;SDS011;8222;51.462;12.630;2022-11-20T10:42:30;19.30;;;15.43;;
16228;SDS011;8222;51.462;12.630;2022-11-20T10:45:11;19.85;;;15.32;;
16228;SDS011;8222;51.462;12.630;2022-11-20T10:47:46;19.23;;;16.00;;
16228;SDS011;8222;51.462;12.630;2022-11-20T10:50:14;20.27;;;15.90;;
16228;SDS011;8222;51.462;12.630;2022-11-20T10:53:05;22.75;;;16.05;;
16228;SDS011;8222;51.462;12.630;2022-11-20T10:55:54;19.92;;;17.40;;
16228;SDS011;8222;51.462;12.630;2022-11-20T10:58:28;18.98;;;15.43;;
16228;SDS011;8222;51.462;12.630;2022-11-20T11:01:04;19.88;;;15.70;;
16228;SDS011;8222;51.462;12.630;2022-11-20T11:03:43;22.48;;;16.95;;
16228;SDS011;8222;51.462;12.630;2022-11-20T11:09:04;17.20;;;14.80;;
16228;SDS011;8222;51.462;12.630;2022-11-20T11:11:37;19.23;;;15.55;;
16228;SDS011;8222;51.462;12.630;2022-11-20T11:14:06;18.15;;;14.45;;
16228;SDS011;8222;51.462;12.630;2022-11-20T11:16:33;16.27;;;12.90;;
16228;SDS011;8222;51.462;12.630;2022-11-20T11:19:17;16.77;;;13.77;;
16228;SDS011;8222;51.462;12.630;2022-11-20T11:21:47;16.63;;;14.00;;
16228;SDS011;8222;51.462;12.630;2022-11-20T11:26:59;18.23;;;14.75;;
16228;SDS011;8222;51.462;12.630;2022-11-20T11:29:31;16.73;;;13.88;;
16228;SDS011;8222;51.462;12.630;2022-11-20T11:34:38;17.77;;;13.40;;
16228;SDS011;8222;51.462;12.630;2022-11-20T11:37:04;15.95;;;13.32;;
16228;SDS011;8222;51.462;12.630;2022-11-20T11:39:35;17.33;;;13.52;;
16228;SDS011;8222;51.462;12.630;2022-11-20T11:42:07;15.38;;;13.02;;
16228;SDS011;8222;51.462;12.630;2022-11-20T11:44:37;17.85;;;13.50;;
16228;SDS011;8222;51.462;12.630;2022-11-20T11:47:43;18.10;;;14.50;;
16228;SDS011;8222;51.462;12.630;2022-11-20T11:50:17;16.73;;;13.77;;
16228;SDS011;8222;51.462;12.630;2022-11-20T11:55:25;16.50;;;14.13;;
16228;SDS011;8222;51.462;12.630;2022-11-20T12:00:57;16.55;;;12.90;;
16228;SDS011;8222;51.462;12.630;2022-11-20T12:03:29;17.80;;;14.77;;
16228;SDS011;8222;51.462;12.630;2022-11-20T12:06:11;18.50;;;13.47;;
16228;SDS011;8222;51.462;12.630;2022-11-20T12:16:39;19.17;;;14.90;;
16228;SDS011;8222;51.462;12.630;2022-11-20T12:19:12;17.48;;;13.93;;
16228;SDS011;8222;51.462;12.630;2022-11-20T12:29:53;16.77;;;13.77;;
16228;SDS011;8222;51.462;12.630;2022-11-20T12:37:58;14.35;;;11.70;;
16228;SDS011;8222;51.462;12.630;2022-11-20T12:43:29;16.50;;;13.23;;
16228;SDS011;8222;51.462;12.630;2022-11-20T12:51:57;13.02;;;11.52;;
16228;SDS011;8222;51.462;12.630;2022-11-20T12:57:40;11.83;;;10.40;;
16228;SDS011;8222;51.462;12.630;2022-11-20T13:00:16;12.38;;;9.80;;
16228;SDS011;8222;51.462;12.630;2022-11-20T13:05:58;11.13;;;9.77;;
16228;SDS011;8222;51.462;12.630;2022-11-20T13:08:34;11.95;;;10.23;;
16228;SDS011;8222;51.462;12.630;2022-11-20T13:17:00;11.07;;;9.70;;
16228;SDS011;8222;51.462;12.630;2022-11-20T13:19:30;10.93;;;9.23;;
16228;SDS011;8222;51.462;12.630;2022-11-20T13:21:57;10.98;;;9.57;;
16228;SDS011;8222;51.462;12.630;2022-11-20T13:24:24;11.30;;;9.30;;
16228;SDS011;8222;51.462;12.630;2022-11-20T13:29:26;10.80;;;9.18;;
16228;SDS011;8222;51.462;12.630;2022-11-20T13:32:00;10.83;;;9.27;;
16228;SDS011;8222;51.462;12.630;2022-11-20T13:34:31;12.80;;;10.20;;
16228;SDS011;8222;51.462;12.630;2022-11-20T13:36:58;11.02;;;9.65;;
16228;SDS011;8222;51.462;12.630;2022-11-20T13:39:35;9.75;;;8.73;;
16228;SDS011;8222;51.462;12.630;2022-11-20T13:44:53;10.00;;;8.05;;
16228;SDS011;8222;51.462;12.630;2022-11-20T13:47:21;9.98;;;8.82;;
16228;SDS011;8222;51.462;12.630;2022-11-20T13:49:51;11.45;;;8.85;;
16228;SDS011;8222;51.462;12.630;2022-11-20T13:52:39;10.23;;;8.98;;
16228;SDS011;8222;51.462;12.630;2022-11-20T13:55:45;11.23;;;9.57;;
16228;SDS011;8222;51.462;12.630;2022-11-20T14:01:17;11.52;;;9.50;;
16228;SDS011;8222;51.462;12.630;2022-11-20T14:03:47;11.50;;;9.10;;
16228;SDS011;8222;51.462;12.630;2022-11-20T14:06:27;11.65;;;9.35;;
16228;SDS011;8222;51.462;12.630;2022-11-20T14:09:00;11.85;;;9.20;;
16228;SDS011;8222;51.462;12.630;2022-11-20T14:11:28;11.10;;;9.70;;
16228;SDS011;8222;51.462;12.630;2022-11-20T14:16:34;10.90;;;9.57;;
16228;SDS011;8222;51.462;12.630;2022-11-20T14:21:46;11.65;;;9.75;;
16228;SDS011;8222;51.462;12.630;2022-11-20T14:24:18;11.68;;;9.07;;
16228;SDS011;8222;51.462;12.630;2022-11-20T14:26:46;11.50;;;9.57;;
16228;SDS011;8222;51.462;12.630;2022-11-20T14:29:23;11.10;;;9.55;;
16228;SDS011;8222;51.462;12.630;2022-11-20T14:31:54;11.60;;;9.32;;
16228;SDS011;8222;51.462;12.630;2022-11-20T14:34:22;14.23;;;9.98;;
16228;SDS011;8222;51.462;12.630;2022-11-20T14:37:00;12.48;;;10.10;;
16228;SDS011;8222;51.462;12.630;2022-11-20T14:39:32;16.05;;;14.35;;
16228;SDS011;8222;51.462;12.630;2022-11-20T14:42:18;54.95;;;39.65;;
16228;SDS011;8222;51.462;12.630;2022-11-20T14:44:44;16.67;;;13.10;;
16228;SDS011;8222;51.462;12.630;2022-11-20T14:47:15;14.02;;;10.63;;
16228;SDS011;8222;51.462;12.630;2022-11-20T14:49:44;14.15;;;11.27;;
16228;SDS011;8222;51.462;12.630;2022-11-20T14:52:17;12.82;;;9.68;;
16228;SDS011;8222;51.462;12.630;2022-11-20T14:54:52;13.32;;;10.88;;
16228;SDS011;8222;51.462;12.630;2022-11-20T15:00:08;13.52;;;10.80;;
16228;SDS011;8222;51.462;12.630;2022-11-20T15:02:43;16.80;;;12.88;;
16228;SDS011;8222;51.462;12.630;2022-11-20T15:05:10;16.85;;;12.45;;
16228;SDS011;8222;51.462;12.630;2022-11-20T15:07:37;13.85;;;10.85;;
16228;SDS011;8222;51.462;12.630;2022-11-20T15:10:20;16.90;;;12.63;;
16228;SDS011;8222;51.462;12.630;2022-11-20T15:12:51;23.85;;;17.60;;
16228;SDS011;8222;51.462;12.630;2022-11-20T15:15:30;29.30;;;19.75;;
16228;SDS011;8222;51.462;12.630;2022-11-20T15:18:00;26.20;;;17.60;;
16228;SDS011;8222;51.462;12.630;2022-11-20T15:20:27;23.33;;;16.77;;
16228;SDS011;8222;51.462;12.630;2022-11-20T15:22:56;25.60;;;18.35;;
16228;SDS011;8222;51.462;12.630;2022-11-20T15:25:21;24.58;;;19.00;;
16228;SDS011;8222;51.462;12.630;2022-11-20T15:27:49;25.77;;;19.03;;
16228;SDS011;8222;51.462;12.630;2022-11-20T15:30:20;27.02;;;18.38;;
16228;SDS011;8222;51.462;12.630;2022-11-20T15:32:46;23.35;;;17.65;;
16228;SDS011;8222;51.462;12.630;2022-11-20T15:35:12;23.70;;;16.95;;
16228;SDS011;8222;51.462;12.630;2022-11-20T15:37:39;19.85;;;14.90;;
16228;SDS011;8222;51.462;12.630;2022-11-20T15:40:05;24.42;;;18.92;;
16228;SDS011;8222;51.462;12.630;2022-11-20T15:42:32;34.80;;;23.92;;
16228;SDS011;8222;51.462;12.630;2022-11-20T15:45:00;36.30;;;26.20;;
16228;SDS011;8222;51.462;12.630;2022-11-20T15:47:28;26.13;;;19.07;;
16228;SDS011;8222;51.462;12.630;2022-11-20T15:49:56;23.50;;;16.75;;
16228;SDS011;8222;51.462;12.630;2022-11-20T15:52:22;23.85;;;15.82;;
16228;SDS011;8222;51.462;12.630;2022-11-20T15:54:47;20.33;;;15.23;;
16228;SDS011;8222;51.462;12.630;2022-11-20T15:57:13;20.93;;;15.27;;
16228;SDS011;8222;51.462;12.630;2022-11-20T15:59:40;23.08;;;16.65;;
16228;SDS011;8222;51.462;12.630;2022-11-20T16:02:13;23.15;;;17.25;;
16228;SDS011;8222;51.462;12.630;2022-11-20T16:04:40;22.83;;;17.13;;
16228;SDS011;8222;51.462;12.630;2022-11-20T16:07:06;20.75;;;16.13;;
16228;SDS011;8222;51.462;12.630;2022-11-20T16:09:32;17.30;;;13.35;;
16228;SDS011;8222;51.462;12.630;2022-11-20T16:11:58;16.52;;;13.02;;
16228;SDS011;8222;51.462;12.630;2022-11-20T16:14:24;16.67;;;12.77;;
16228;SDS011;8222;51.462;12.630;2022-11-20T16:17:12;14.80;;;12.85;;
16228;SDS011;8222;51.462;12.630;2022-11-20T16:19:38;16.05;;;11.32;;
16228;SDS011;8222;51.462;12.630;2022-11-20T16:22:04;17.38;;;12.63;;
16228;SDS011;8222;51.462;12.630;2022-11-20T16:24:31;14.48;;;12.35;;
16228;SDS011;8222;51.462;12.630;2022-11-20T16:26:57;18.40;;;13.13;;
16228;SDS011;8222;51.462;12.630;2022-11-20T16:29:22;15.98;;;12.55;;